sensor_id;sensor_type;location;lat;lon;timestamp;pressure;altitude;pressure_sealevel;temperature;humidity
34374;BME280;20637;55.770;37.592;2023-06-04T00:02:12;99885.72;;;8.90;70.63
34374;BME280;20637;55.770;37.592;2023-06-04T00:04:37;99890.41;;;8.88;70.44
34374;BME280;20637;55.770;37.592;2023-06-04T00:07:03;99886.91;;;8.88;70.74
34374;BME280;20637;55.770;37.592;2023-06-04T00:09:28;99892.09;;;8.89;71.29
34374;BME280;20637;55.770;37.592;2023-06-04T00:11:54;99895.50;;;8.91;70.61
34374;BME280;20637;55.770;37.592;2023-06-04T00:14:20;99894.13;;;8.87;71.27
34374;BME280;20637;55.770;37.592;2023-06-04T00:16:45;99896.09;;;8.85;71.28
34374;BME280;20637;55.770;37.592;2023-06-04T00:19:11;99893.41;;;8.85;70.73
34374;BME280;20637;55.770;37.592;2023-06-04T00:21:36;99899.78;;;8.84;71.09
34374;BME280;20637;55.770;37.592;2023-06-04T00:24:02;99900.81;;;8.83;70.92
34374;BME280;20637;55.770;37.592;2023-06-04T00:26:27;99902.22;;;8.78;71.18
34374;BME280;20637;55.770;37.592;2023-06-04T00:28:56;99903.22;;;8.77;71.01
34374;BME280;20637;55.770;37.592;2023-06-04T00:31:21;99899.00;;;8.74;71.12
34374;BME280;20637;55.770;37.592;2023-06-04T00:33:47;99901.56;;;8.76;70.71
34374;BME280;20637;55.770;37.592;2023-06-04T00:36:13;99904.81;;;8.70;71.09
34374;BME280;20637;55.770;37.592;2023-06-04T00:38:38;99904.28;;;8.66;71.06
34374;BME280;20637;55.770;37.592;2023-06-04T00:41:04;99902.44;;;8.67;70.78
34374;BME280;20637;55.770;37.592;2023-06-04T00:43:29;99906.97;;;8.66;70.46
34374;BME280;20637;55.770;37.592;2023-06-04T00:45:56;99918.72;;;8.65;70.86
34374;BME280;20637;55.770;37.592;2023-06-04T00:48:22;99907.28;;;8.63;71.17
34374;BME280;20637;55.770;37.592;2023-06-04T00:50:48;99921.03;;;8.60;70.73
34374;BME280;20637;55.770;37.592;2023-06-04T00:53:14;99919.19;;;8.60;70.91
34374;BME280;20637;55.770;37.592;2023-06-04T00:55:40;99933.78;;;8.58;70.83
34374;BME280;20637;55.770;37.592;2023-06-04T00:58:06;99937.06;;;8.52;70.42
34374;BME280;20637;55.770;37.592;2023-06-04T01:00:33;99932.00;;;8.49;70.77
34374;BME280;20637;55.770;37.592;2023-06-04T01:03:00;99933.97;;;8.47;70.64
34374;BME280;20637;55.770;37.592;2023-06-04T01:05:54;99934.41;;;8.42;70.92
34374;BME280;20637;55.770;37.592;2023-06-04T01:08:17;99935.41;;;8.41;70.30
34374;BME280;20637;55.770;37.592;2023-06-04T01:13:35;99941.91;;;8.39;70.86
34374;BME280;20637;55.770;37.592;2023-06-04T01:16:00;99940.53;;;8.35;70.81
34374;BME280;20637;55.770;37.592;2023-06-04T01:18:29;99936.97;;;8.34;70.36
34374;BME280;20637;55.770;37.592;2023-06-04T01:20:59;99945.47;;;8.39;70.45
34374;BME280;20637;55.770;37.592;2023-06-04T01:23:28;99950.16;;;8.37;71.04
34374;BME280;20637;55.770;37.592;2023-06-04T01:26:00;99944.22;;;8.34;70.33
34374;BME280;20637;55.770;37.592;2023-06-04T01:28:28;99950.59;;;8.33;70.32
34374;BME280;20637;55.770;37.592;2023-06-04T01:30:54;99955.13;;;8.32;71.09
34374;BME280;20637;55.770;37.592;2023-06-04T01:33:21;99952.72;;;8.29;70.31
34374;BME280;20637;55.770;37.592;2023-06-04T01:35:47;99958.19;;;8.28;70.56
34374;BME280;20637;55.770;37.592;2023-06-04T01:38:13;99956.50;;;8.27;70.95
34374;BME280;20637;55.770;37.592;2023-06-04T01:40:39;99961.06;;;8.26;70.73
34374;BME280;20637;55.770;37.592;2023-06-04T01:43:04;99968.53;;;8.23;70.85
34374;BME280;20637;55.770;37.592;2023-06-04T01:45:29;99969.56;;;8.22;70.84
34374;BME280;20637;55.770;37.592;2023-06-04T01:47:55;99963.75;;;8.17;70.67
34374;BME280;20637;55.770;37.592;2023-06-04T01:50:22;99969.56;;;8.12;71.13
34374;BME280;20637;55.770;37.592;2023-06-04T01:52:48;99974.25;;;8.10;70.42
34374;BME280;20637;55.770;37.592;2023-06-04T01:55:14;99977.91;;;8.09;71.06
34374;BME280;20637;55.770;37.592;2023-06-04T01:57:40;99973.81;;;8.05;70.66
34374;BME280;20637;55.770;37.592;2023-06-04T02:00:07;99968.88;;;8.00;70.83
34374;BME280;20637;55.770;37.592;2023-06-04T02:02:38;99979.22;;;7.95;70.79
34374;BME280;20637;55.770;37.592;2023-06-04T02:05:04;99982.19;;;7.92;71.34
34374;BME280;20637;55.770;37.592;2023-06-04T02:07:33;99989.13;;;7.95;70.79
34374;BME280;20637;55.770;37.592;2023-06-04T02:09:59;99981.91;;;7.95;70.75
34374;BME280;20637;55.770;37.592;2023-06-04T02:12:25;99988.97;;;7.96;71.21
34374;BME280;20637;55.770;37.592;2023-06-04T02:14:50;99992.25;;;7.90;70.99
34374;BME280;20637;55.770;37.592;2023-06-04T02:17:16;99991.50;;;7.88;71.25
34374;BME280;20637;55.770;37.592;2023-06-04T02:19:42;99994.94;;;7.90;71.28
34374;BME280;20637;55.770;37.592;2023-06-04T02:22:17;100001.00;;;7.92;71.67
34374;BME280;20637;55.770;37.592;2023-06-04T02:24:43;100009.50;;;7.97;71.30
34374;BME280;20637;55.770;37.592;2023-06-04T02:27:09;100014.28;;;8.03;71.53
34374;BME280;20637;55.770;37.592;2023-06-04T02:29:35;100011.59;;;8.03;71.04
34374;BME280;20637;55.770;37.592;2023-06-04T02:32:01;100004.13;;;8.07;71.39
34374;BME280;20637;55.770;37.592;2023-06-04T02:34:27;100011.88;;;8.10;71.41
34374;BME280;20637;55.770;37.592;2023-06-04T02:36:52;100018.94;;;8.11;71.50
34374;BME280;20637;55.770;37.592;2023-06-04T02:39:18;100025.19;;;8.11;71.25
34374;BME280;20637;55.770;37.592;2023-06-04T02:41:43;100020.53;;;8.13;71.50
34374;BME280;20637;55.770;37.592;2023-06-04T02:44:08;100023.91;;;8.15;71.08
34374;BME280;20637;55.770;37.592;2023-06-04T02:46:34;100024.31;;;8.21;71.72
34374;BME280;20637;55.770;37.592;2023-06-04T02:48:59;100031.25;;;8.23;71.30
34374;BME280;20637;55.770;37.592;2023-06-04T02:51:25;100036.38;;;8.26;71.15
34374;BME280;20637;55.770;37.592;2023-06-04T02:53:50;100037.94;;;8.29;71.49
34374;BME280;20637;55.770;37.592;2023-06-04T02:56:16;100033.41;;;8.29;71.31
34374;BME280;20637;55.770;37.592;2023-06-04T02:59:02;100042.03;;;8.33;71.15
34374;BME280;20637;55.770;37.592;2023-06-04T03:01:27;100043.44;;;8.37;71.69
34374;BME280;20637;55.770;37.592;2023-06-04T03:03:54;100041.75;;;8.45;71.66
34374;BME280;20637;55.770;37.592;2023-06-04T03:06:20;100047.81;;;8.47;71.48
34374;BME280;20637;55.770;37.592;2023-06-04T03:08:46;100053.75;;;8.51;71.25
34374;BME280;20637;55.770;37.592;2023-06-04T03:11:12;100058.16;;;8.52;71.20
34374;BME280;20637;55.770;37.592;2023-06-04T03:13:38;100059.84;;;8.53;71.31
34374;BME280;20637;55.770;37.592;2023-06-04T03:16:04;100058.28;;;8.60;71.09
34374;BME280;20637;55.770;37.592;2023-06-04T03:18:35;100066.59;;;8.67;71.52
34374;BME280;20637;55.770;37.592;2023-06-04T03:21:01;100081.59;;;8.69;71.35
34374;BME280;20637;55.770;37.592;2023-06-04T03:23:27;100076.38;;;8.68;71.20
34374;BME280;20637;55.770;37.592;2023-06-04T03:25:52;100073.13;;;8.64;71.37
34374;BME280;20637;55.770;37.592;2023-06-04T03:28:18;100085.72;;;8.64;71.17
34374;BME280;20637;55.770;37.592;2023-06-04T03:30:44;100086.28;;;8.67;71.46
34374;BME280;20637;55.770;37.592;2023-06-04T03:33:10;100088.84;;;8.69;71.53
34374;BME280;20637;55.770;37.592;2023-06-04T03:35:35;100090.25;;;8.73;70.80
34374;BME280;20637;55.770;37.592;2023-06-04T03:38:01;100081.16;;;8.74;71.45
34374;BME280;20637;55.770;37.592;2023-06-04T03:40:28;100090.50;;;8.79;70.65
34374;BME280;20637;55.770;37.592;2023-06-04T03:42:53;100085.53;;;8.84;71.07
34374;BME280;20637;55.770;37.592;2023-06-04T03:45:21;100095.84;;;8.89;71.19
34374;BME280;20637;55.770;37.592;2023-06-04T03:47:47;100102.50;;;8.94;70.73
34374;BME280;20637;55.770;37.592;2023-06-04T03:50:13;100102.94;;;8.99;70.48
34374;BME280;20637;55.770;37.592;2023-06-04T03:52:40;100107.72;;;9.05;71.10
34374;BME280;20637;55.770;37.592;2023-06-04T03:55:06;100104.41;;;9.12;70.72
34374;BME280;20637;55.770;37.592;2023-06-04T03:57:33;100112.06;;;9.16;70.38
34374;BME280;20637;55.770;37.592;2023-06-04T04:00:00;100110.47;;;9.23;70.17
34374;BME280;20637;55.770;37.592;2023-06-04T04:02:25;100112.91;;;9.26;70.56
34374;BME280;20637;55.770;37.592;2023-06-04T04:04:51;100113.44;;;9.30;69.79
34374;BME280;20637;55.770;37.592;2023-06-04T04:07:19;100117.06;;;9.38;70.53
34374;BME280;20637;55.770;37.592;2023-06-04T04:09:46;100108.94;;;9.48;69.76
34374;BME280;20637;55.770;37.592;2023-06-04T04:12:11;100111.88;;;9.54;69.52
34374;BME280;20637;55.770;37.592;2023-06-04T04:14:37;100120.06;;;9.63;70.04
34374;BME280;20637;55.770;37.592;2023-06-04T04:17:03;100115.53;;;9.63;69.73
34374;BME280;20637;55.770;37.592;2023-06-04T04:19:30;100121.78;;;9.64;69.91
34374;BME280;20637;55.770;37.592;2023-06-04T04:21:55;100121.63;;;9.65;69.41
34374;BME280;20637;55.770;37.592;2023-06-04T04:24:24;100116.78;;;9.69;69.33
34374;BME280;20637;55.770;37.592;2023-06-04T04:26:52;100122.19;;;9.69;69.61
34374;BME280;20637;55.770;37.592;2023-06-04T04:29:22;100121.69;;;9.73;69.61
34374;BME280;20637;55.770;37.592;2023-06-04T04:31:50;100123.50;;;9.82;69.36
34374;BME280;20637;55.770;37.592;2023-06-04T04:34:17;100137.94;;;9.91;69.51
34374;BME280;20637;55.770;37.592;2023-06-04T04:36:46;100123.16;;;9.95;69.12
34374;BME280;20637;55.770;37.592;2023-06-04T04:39:18;100123.53;;;10.00;69.08
34374;BME280;20637;55.770;37.592;2023-06-04T04:41:44;100136.41;;;10.06;69.15
34374;BME280;20637;55.770;37.592;2023-06-04T04:44:10;100133.78;;;10.14;69.29
34374;BME280;20637;55.770;37.592;2023-06-04T04:46:35;100139.31;;;10.22;69.04
34374;BME280;20637;55.770;37.592;2023-06-04T04:49:01;100135.97;;;10.28;69.07
34374;BME280;20637;55.770;37.592;2023-06-04T04:51:27;100141.38;;;10.28;68.38
34374;BME280;20637;55.770;37.592;2023-06-04T04:53:54;100146.09;;;10.26;68.50
34374;BME280;20637;55.770;37.592;2023-06-04T04:56:20;100142.53;;;10.26;68.38
34374;BME280;20637;55.770;37.592;2023-06-04T04:58:48;100140.25;;;10.31;68.52
34374;BME280;20637;55.770;37.592;2023-06-04T05:01:14;100141.91;;;10.32;68.43
34374;BME280;20637;55.770;37.592;2023-06-04T05:03:41;100136.78;;;10.38;68.40
34374;BME280;20637;55.770;37.592;2023-06-04T05:06:09;100136.00;;;10.46;68.25
34374;BME280;20637;55.770;37.592;2023-06-04T05:08:34;100141.94;;;10.49;68.25
34374;BME280;20637;55.770;37.592;2023-06-04T05:11:01;100138.69;;;10.46;67.62
34374;BME280;20637;55.770;37.592;2023-06-04T05:13:27;100146.47;;;10.49;67.75
34374;BME280;20637;55.770;37.592;2023-06-04T05:15:57;100149.38;;;10.56;67.56
34374;BME280;20637;55.770;37.592;2023-06-04T05:18:25;100149.78;;;10.61;67.69
34374;BME280;20637;55.770;37.592;2023-06-04T05:21:00;100151.16;;;10.65;67.35
34374;BME280;20637;55.770;37.592;2023-06-04T05:23:29;100148.06;;;10.60;67.22
34374;BME280;20637;55.770;37.592;2023-06-04T05:25:55;100148.78;;;10.62;67.16
34374;BME280;20637;55.770;37.592;2023-06-04T05:28:21;100147.16;;;10.69;67.43
34374;BME280;20637;55.770;37.592;2023-06-04T05:30:51;100148.41;;;10.82;67.36
34374;BME280;20637;55.770;37.592;2023-06-04T05:33:17;100139.72;;;10.88;66.74
34374;BME280;20637;55.770;37.592;2023-06-04T05:35:47;100154.88;;;10.89;66.54
34374;BME280;20637;55.770;37.592;2023-06-04T05:38:14;100148.03;;;10.95;66.73
34374;BME280;20637;55.770;37.592;2023-06-04T05:40:44;100145.19;;;11.05;66.70
34374;BME280;20637;55.770;37.592;2023-06-04T05:43:11;100141.34;;;11.07;66.23
34374;BME280;20637;55.770;37.592;2023-06-04T05:45:37;100142.41;;;11.14;66.03
34374;BME280;20637;55.770;37.592;2023-06-04T05:48:03;100143.31;;;11.23;66.33
34374;BME280;20637;55.770;37.592;2023-06-04T05:50:29;100143.50;;;11.29;65.80
34374;BME280;20637;55.770;37.592;2023-06-04T05:52:55;100138.25;;;11.28;65.60
34374;BME280;20637;55.770;37.592;2023-06-04T05:55:22;100140.84;;;11.37;65.45
34374;BME280;20637;55.770;37.592;2023-06-04T05:57:48;100143.56;;;11.37;64.69
34374;BME280;20637;55.770;37.592;2023-06-04T06:00:14;100142.69;;;11.37;64.62
34374;BME280;20637;55.770;37.592;2023-06-04T06:02:40;100148.31;;;11.43;64.79
34374;BME280;20637;55.770;37.592;2023-06-04T06:05:14;100146.88;;;11.57;64.08
34374;BME280;20637;55.770;37.592;2023-06-04T06:07:40;100148.06;;;11.63;63.37
34374;BME280;20637;55.770;37.592;2023-06-04T06:10:06;100143.50;;;11.63;63.00
34374;BME280;20637;55.770;37.592;2023-06-04T06:12:33;100143.22;;;11.74;63.19
34374;BME280;20637;55.770;37.592;2023-06-04T06:14:58;100143.44;;;11.81;62.55
34374;BME280;20637;55.770;37.592;2023-06-04T06:17:24;100146.19;;;11.89;62.30
34374;BME280;20637;55.770;37.592;2023-06-04T06:19:51;100147.84;;;11.90;62.29
34374;BME280;20637;55.770;37.592;2023-06-04T06:22:18;100151.41;;;11.90;61.72
34374;BME280;20637;55.770;37.592;2023-06-04T06:24:43;100146.00;;;11.90;61.66
34374;BME280;20637;55.770;37.592;2023-06-04T06:27:09;100154.97;;;11.91;62.07
34374;BME280;20637;55.770;37.592;2023-06-04T06:29:35;100153.47;;;11.97;62.45
34374;BME280;20637;55.770;37.592;2023-06-04T06:32:02;100149.59;;;12.07;61.93
34374;BME280;20637;55.770;37.592;2023-06-04T06:34:27;100150.28;;;12.17;61.79
34374;BME280;20637;55.770;37.592;2023-06-04T06:36:52;100149.13;;;12.20;60.72
34374;BME280;20637;55.770;37.592;2023-06-04T06:39:18;100153.53;;;12.21;60.13
34374;BME280;20637;55.770;37.592;2023-06-04T06:41:44;100143.19;;;12.24;59.72
34374;BME280;20637;55.770;37.592;2023-06-04T06:44:15;100142.72;;;12.29;59.15
34374;BME280;20637;55.770;37.592;2023-06-04T06:46:41;100151.84;;;12.36;59.44
34374;BME280;20637;55.770;37.592;2023-06-04T06:49:06;100150.50;;;12.48;59.86
34374;BME280;20637;55.770;37.592;2023-06-04T06:51:32;100145.63;;;12.60;58.69
34374;BME280;20637;55.770;37.592;2023-06-04T06:53:57;100147.81;;;12.72;58.22
34374;BME280;20637;55.770;37.592;2023-06-04T06:56:23;100148.69;;;12.81;58.05
34374;BME280;20637;55.770;37.592;2023-06-04T06:58:48;100145.97;;;12.81;57.96
34374;BME280;20637;55.770;37.592;2023-06-04T07:01:14;100152.41;;;12.80;57.14
34374;BME280;20637;55.770;37.592;2023-06-04T07:03:39;100143.75;;;12.84;57.43
34374;BME280;20637;55.770;37.592;2023-06-04T07:06:05;100148.69;;;12.89;57.27
34374;BME280;20637;55.770;37.592;2023-06-04T07:08:31;100146.13;;;12.96;57.30
34374;BME280;20637;55.770;37.592;2023-06-04T07:10:56;100148.16;;;12.94;56.55
34374;BME280;20637;55.770;37.592;2023-06-04T07:13:22;100157.13;;;12.94;56.37
34374;BME280;20637;55.770;37.592;2023-06-04T07:15:47;100148.31;;;12.92;55.31
34374;BME280;20637;55.770;37.592;2023-06-04T07:18:13;100155.44;;;13.01;56.98
34374;BME280;20637;55.770;37.592;2023-06-04T07:20:38;100152.56;;;13.19;57.18
34374;BME280;20637;55.770;37.592;2023-06-04T07:23:04;100151.19;;;13.31;56.40
34374;BME280;20637;55.770;37.592;2023-06-04T07:25:29;100148.94;;;13.43;55.23
34374;BME280;20637;55.770;37.592;2023-06-04T07:27:55;100153.84;;;13.47;54.76
34374;BME280;20637;55.770;37.592;2023-06-04T07:30:26;100156.00;;;13.52;55.66
34374;BME280;20637;55.770;37.592;2023-06-04T07:32:52;100160.41;;;13.61;55.47
34374;BME280;20637;55.770;37.592;2023-06-04T07:35:17;100151.06;;;13.63;55.84
34374;BME280;20637;55.770;37.592;2023-06-04T07:37:43;100153.97;;;13.62;54.59
34374;BME280;20637;55.770;37.592;2023-06-04T07:40:10;100156.00;;;13.60;54.64
34374;BME280;20637;55.770;37.592;2023-06-04T07:42:36;100158.50;;;13.69;54.53
34374;BME280;20637;55.770;37.592;2023-06-04T07:45:02;100149.34;;;13.78;53.74
34374;BME280;20637;55.770;37.592;2023-06-04T07:47:29;100153.19;;;13.84;53.63
34374;BME280;20637;55.770;37.592;2023-06-04T07:49:54;100151.28;;;13.93;53.11
34374;BME280;20637;55.770;37.592;2023-06-04T07:52:20;100152.75;;;14.03;52.62
34374;BME280;20637;55.770;37.592;2023-06-04T07:54:45;100149.69;;;14.06;51.45
34374;BME280;20637;55.770;37.592;2023-06-04T07:57:11;100155.06;;;14.14;51.77
34374;BME280;20637;55.770;37.592;2023-06-04T07:59:36;100155.91;;;14.15;51.02
34374;BME280;20637;55.770;37.592;2023-06-04T08:02:01;100148.16;;;14.04;49.76
34374;BME280;20637;55.770;37.592;2023-06-04T08:04:27;100152.91;;;14.02;50.68
34374;BME280;20637;55.770;37.592;2023-06-04T08:06:52;100152.91;;;14.02;50.79
34374;BME280;20637;55.770;37.592;2023-06-04T08:09:18;100159.03;;;14.04;50.61
34374;BME280;20637;55.770;37.592;2023-06-04T08:11:43;100158.88;;;14.05;49.38
34374;BME280;20637;55.770;37.592;2023-06-04T08:14:12;100158.53;;;14.00;48.80
34374;BME280;20637;55.770;37.592;2023-06-04T08:16:38;100163.13;;;14.00;48.61
34374;BME280;20637;55.770;37.592;2023-06-04T08:19:21;100153.50;;;14.20;48.78
34374;BME280;20637;55.770;37.592;2023-06-04T08:21:57;100156.44;;;14.41;47.76
34374;BME280;20637;55.770;37.592;2023-06-04T08:24:37;100158.47;;;14.47;47.81
34374;BME280;20637;55.770;37.592;2023-06-04T08:27:20;100173.97;;;14.30;46.95
34374;BME280;20637;55.770;37.592;2023-06-04T08:29:52;100170.34;;;14.15;46.93
34374;BME280;20637;55.770;37.592;2023-06-04T08:32:37;100166.00;;;13.98;47.46
34374;BME280;20637;55.770;37.592;2023-06-04T08:35:23;100172.88;;;13.86;47.91
34374;BME280;20637;55.770;37.592;2023-06-04T08:37:48;100169.13;;;13.79;47.81
34374;BME280;20637;55.770;37.592;2023-06-04T08:40:14;100169.50;;;13.76;48.52
34374;BME280;20637;55.770;37.592;2023-06-04T08:42:42;100171.16;;;13.85;49.45
34374;BME280;20637;55.770;37.592;2023-06-04T08:45:13;100169.94;;;13.96;48.91
34374;BME280;20637;55.770;37.592;2023-06-04T08:47:42;100177.31;;;14.10;49.33
34374;BME280;20637;55.770;37.592;2023-06-04T08:50:08;100168.63;;;14.14;49.10
34374;BME280;20637;55.770;37.592;2023-06-04T08:52:35;100177.75;;;14.21;48.77
34374;BME280;20637;55.770;37.592;2023-06-04T08:55:00;100174.03;;;14.22;48.41
34374;BME280;20637;55.770;37.592;2023-06-04T08:57:26;100173.38;;;14.20;49.01
34374;BME280;20637;55.770;37.592;2023-06-04T08:59:52;100170.50;;;14.14;49.22
34374;BME280;20637;55.770;37.592;2023-06-04T09:02:17;100177.34;;;14.02;48.57
34374;BME280;20637;55.770;37.592;2023-06-04T09:04:43;100168.41;;;13.93;48.90
34374;BME280;20637;55.770;37.592;2023-06-04T09:07:10;100179.63;;;13.90;48.76
34374;BME280;20637;55.770;37.592;2023-06-04T09:09:37;100171.81;;;13.87;48.57
34374;BME280;20637;55.770;37.592;2023-06-04T09:12:03;100178.78;;;13.90;48.30
34374;BME280;20637;55.770;37.592;2023-06-04T09:14:31;100182.13;;;14.00;48.87
34374;BME280;20637;55.770;37.592;2023-06-04T09:16:56;100181.41;;;14.06;48.66
34374;BME280;20637;55.770;37.592;2023-06-04T09:19:24;100184.28;;;14.12;48.58
34374;BME280;20637;55.770;37.592;2023-06-04T09:24:18;100180.47;;;14.21;48.62
34374;BME280;20637;55.770;37.592;2023-06-04T09:26:44;100187.38;;;14.32;47.93
34374;BME280;20637;55.770;37.592;2023-06-04T09:29:10;100188.91;;;14.35;47.40
34374;BME280;20637;55.770;37.592;2023-06-04T09:31:35;100181.22;;;14.46;47.34
34374;BME280;20637;55.770;37.592;2023-06-04T09:34:03;100180.97;;;14.56;46.98
34374;BME280;20637;55.770;37.592;2023-06-04T09:36:35;100183.13;;;14.60;47.15
34374;BME280;20637;55.770;37.592;2023-06-04T09:39:14;100181.66;;;14.58;46.82
34374;BME280;20637;55.770;37.592;2023-06-04T09:41:39;100191.72;;;14.49;46.54
34374;BME280;20637;55.770;37.592;2023-06-04T09:44:05;100181.22;;;14.46;46.32
34374;BME280;20637;55.770;37.592;2023-06-04T09:46:31;100187.06;;;14.35;45.95
34374;BME280;20637;55.770;37.592;2023-06-04T09:49:03;100187.22;;;14.25;44.76
34374;BME280;20637;55.770;37.592;2023-06-04T09:51:29;100185.22;;;14.27;45.45
34374;BME280;20637;55.770;37.592;2023-06-04T09:56:21;100186.59;;;14.54;43.41
34374;BME280;20637;55.770;37.592;2023-06-04T09:58:48;100180.47;;;14.52;44.01
34374;BME280;20637;55.770;37.592;2023-06-04T10:01:14;100180.09;;;14.63;43.22
34374;BME280;20637;55.770;37.592;2023-06-04T10:03:39;100182.91;;;14.70;43.55
34374;BME280;20637;55.770;37.592;2023-06-04T10:06:07;100176.47;;;14.71;43.41
34374;BME280;20637;55.770;37.592;2023-06-04T10:08:33;100173.66;;;14.79;43.65
34374;BME280;20637;55.770;37.592;2023-06-04T10:11:02;100178.00;;;14.88;43.94
34374;BME280;20637;55.770;37.592;2023-06-04T10:13:29;100171.41;;;15.05;44.66
34374;BME280;20637;55.770;37.592;2023-06-04T10:15:58;100162.19;;;15.29;43.67
34374;BME280;20637;55.770;37.592;2023-06-04T10:18:24;100168.91;;;15.33;42.93
34374;BME280;20637;55.770;37.592;2023-06-04T10:20:55;100166.56;;;15.45;42.85
34374;BME280;20637;55.770;37.592;2023-06-04T10:23:21;100162.97;;;15.52;42.02
34374;BME280;20637;55.770;37.592;2023-06-04T10:25:50;100170.22;;;15.37;41.77
34374;BME280;20637;55.770;37.592;2023-06-04T10:28:20;100166.63;;;15.22;41.78
34374;BME280;20637;55.770;37.592;2023-06-04T10:30:46;100171.22;;;15.07;42.12
34374;BME280;20637;55.770;37.592;2023-06-04T10:33:12;100175.78;;;15.06;42.68
34374;BME280;20637;55.770;37.592;2023-06-04T10:35:38;100164.34;;;14.96;42.11
34374;BME280;20637;55.770;37.592;2023-06-04T10:38:07;100169.31;;;14.93;43.22
34374;BME280;20637;55.770;37.592;2023-06-04T10:40:33;100169.84;;;14.88;42.97
34374;BME280;20637;55.770;37.592;2023-06-04T10:43:04;100167.41;;;14.78;43.62
34374;BME280;20637;55.770;37.592;2023-06-04T10:45:30;100167.75;;;14.75;43.88
34374;BME280;20637;55.770;37.592;2023-06-04T10:48:02;100162.13;;;14.77;44.03
34374;BME280;20637;55.770;37.592;2023-06-04T10:50:27;100177.69;;;14.83;43.73
34374;BME280;20637;55.770;37.592;2023-06-04T10:52:54;100168.34;;;14.86;43.71
34374;BME280;20637;55.770;37.592;2023-06-04T10:55:20;100177.34;;;14.86;42.35
34374;BME280;20637;55.770;37.592;2023-06-04T10:57:52;100179.22;;;14.86;42.16
34374;BME280;20637;55.770;37.592;2023-06-04T11:00:18;100176.88;;;14.83;42.26
34374;BME280;20637;55.770;37.592;2023-06-04T11:02:50;100180.06;;;14.86;42.26
34374;BME280;20637;55.770;37.592;2023-06-04T11:05:16;100170.31;;;14.92;41.82
34374;BME280;20637;55.770;37.592;2023-06-04T11:07:42;100175.16;;;15.04;41.90
34374;BME280;20637;55.770;37.592;2023-06-04T11:10:09;100177.03;;;15.18;41.26
34374;BME280;20637;55.770;37.592;2023-06-04T11:12:47;100168.34;;;15.23;40.85
34374;BME280;20637;55.770;37.592;2023-06-04T11:15:13;100173.06;;;15.29;40.86
34374;BME280;20637;55.770;37.592;2023-06-04T11:17:52;100161.34;;;15.43;40.31
34374;BME280;20637;55.770;37.592;2023-06-04T11:20:18;100166.16;;;15.56;40.10
34374;BME280;20637;55.770;37.592;2023-06-04T11:22:54;100150.69;;;15.71;39.86
34374;BME280;20637;55.770;37.592;2023-06-04T11:25:21;100156.28;;;15.84;40.18
34374;BME280;20637;55.770;37.592;2023-06-04T11:27:47;100155.91;;;16.02;39.99
34374;BME280;20637;55.770;37.592;2023-06-04T11:30:13;100155.69;;;16.03;39.12
34374;BME280;20637;55.770;37.592;2023-06-04T11:32:39;100162.09;;;15.96;39.18
34374;BME280;20637;55.770;37.592;2023-06-04T11:35:05;100162.44;;;16.07;39.21
34374;BME280;20637;55.770;37.592;2023-06-04T11:37:31;100165.44;;;16.12;39.06
34374;BME280;20637;55.770;37.592;2023-06-04T11:39:58;100163.06;;;16.24;38.81
34374;BME280;20637;55.770;37.592;2023-06-04T11:42:23;100155.53;;;16.26;38.84
34374;BME280;20637;55.770;37.592;2023-06-04T11:44:48;100158.69;;;16.44;38.56
34374;BME280;20637;55.770;37.592;2023-06-04T11:47:20;100152.72;;;16.55;38.34
34374;BME280;20637;55.770;37.592;2023-06-04T11:49:46;100151.38;;;16.66;38.00
34374;BME280;20637;55.770;37.592;2023-06-04T11:52:11;100154.56;;;16.70;37.29
34374;BME280;20637;55.770;37.592;2023-06-04T11:54:37;100153.28;;;16.65;36.18
34374;BME280;20637;55.770;37.592;2023-06-04T11:57:03;100150.44;;;16.38;36.12
34374;BME280;20637;55.770;37.592;2023-06-04T11:59:30;100154.38;;;16.35;36.93
34374;BME280;20637;55.770;37.592;2023-06-04T12:01:56;100159.00;;;16.35;37.49
34374;BME280;20637;55.770;37.592;2023-06-04T12:04:22;100159.00;;;16.35;37.62
34374;BME280;20637;55.770;37.592;2023-06-04T12:06:51;100152.69;;;16.34;37.54
34374;BME280;20637;55.770;37.592;2023-06-04T12:09:21;100149.84;;;16.42;37.75
34374;BME280;20637;55.770;37.592;2023-06-04T12:11:47;100151.03;;;16.54;36.79
34374;BME280;20637;55.770;37.592;2023-06-04T12:14:15;100147.09;;;16.57;37.35
34374;BME280;20637;55.770;37.592;2023-06-04T12:16:41;100151.13;;;16.82;37.61
34374;BME280;20637;55.770;37.592;2023-06-04T12:21:35;100153.41;;;17.34;37.09
34374;BME280;20637;55.770;37.592;2023-06-04T12:26:36;100154.34;;;16.50;37.44
34374;BME280;20637;55.770;37.592;2023-06-04T12:31:35;100156.78;;;16.24;38.24
34374;BME280;20637;55.770;37.592;2023-06-04T12:34:01;100164.50;;;16.20;38.36
34374;BME280;20637;55.770;37.592;2023-06-04T12:36:27;100161.59;;;16.07;38.38
34374;BME280;20637;55.770;37.592;2023-06-04T12:38:55;100163.13;;;15.95;38.67
34374;BME280;20637;55.770;37.592;2023-06-04T12:41:21;100171.59;;;15.85;38.92
34374;BME280;20637;55.770;37.592;2023-06-04T12:43:46;100167.09;;;15.78;39.09
34374;BME280;20637;55.770;37.592;2023-06-04T12:46:11;100165.47;;;15.68;39.26
34374;BME280;20637;55.770;37.592;2023-06-04T12:48:37;100170.28;;;15.66;39.30
34374;BME280;20637;55.770;37.592;2023-06-04T12:51:02;100165.69;;;15.67;39.41
34374;BME280;20637;55.770;37.592;2023-06-04T12:53:28;100171.22;;;15.73;39.27
34374;BME280;20637;55.770;37.592;2023-06-04T12:55:53;100160.22;;;15.82;38.94
34374;BME280;20637;55.770;37.592;2023-06-04T12:58:19;100153.00;;;15.89;38.77
34374;BME280;20637;55.770;37.592;2023-06-04T13:00:44;100159.19;;;15.97;38.30